Time;durP1;ratioP1;P1;durP2;ratioP2;P2;SDS_P1;SDS_P2;PMS_P1;PMS_P2;Temp;Humidity;BMP_temperature;BMP_pressure;BME280_temperature;BME280_humidity;BME280_pressure;Samples;Min_cycle;Max_cycle;Signal;HPM_P1;HPM_P2
2022/10/28 00:02:11;;;;;;;18.90;9.10;;;8.40;99.90;;;;;;8313687;28;20022;-85
2022/10/28 00:06:16;;;;;;;15.48;9.50;;;8.30;99.90;;;;;;8313542;28;20017;-85
2022/10/28 00:10:17;;;;;;;21.67;11.10;;;8.40;99.90;;;;;;8325638;28;20176;-85
2022/10/28 00:14:17;;;;;;;22.08;11.40;;;8.40;99.90;;;;;;8313754;28;20057;-85
2022/10/28 00:18:18;;;;;;;18.30;10.05;;;8.50;99.90;;;;;;8308518;28;20026;-86
2022/10/28 00:22:18;;;;;;;16.25;10.07;;;8.50;99.90;;;;;;8317720;28;20026;-85
2022/10/28 00:26:28;;;;;;;19.75;9.57;;;8.60;99.90;;;;;;8318206;28;20018;-86
2022/10/28 00:30:28;;;;;;;18.65;10.38;;;8.60;99.90;;;;;;8326411;28;20437;-85
2022/10/28 00:34:29;;;;;;;18.08;8.98;;;8.80;99.90;;;;;;8309635;28;20031;-86
2022/10/28 00:38:29;;;;;;;17.92;9.45;;;8.70;99.90;;;;;;8312367;28;20029;-86
2022/10/28 00:42:30;;;;;;;17.75;9.95;;;8.60;99.90;;;;;;8315837;28;20072;-85
2022/10/28 00:46:52;;;;;;;13.40;9.45;;;8.50;99.90;;;;;;8316758;28;20672;-86
2022/10/28 00:50:53;;;;;;;20.15;9.15;;;8.50;99.90;;;;;;8305023;28;20022;-85
2022/10/28 00:54:56;;;;;;;15.02;8.18;;;8.30;99.90;;;;;;8314887;28;20497;-85
2022/10/28 00:59:00;;;;;;;14.63;7.80;;;8.30;99.90;;;;;;8322640;28;20539;-85
2022/10/28 01:03:00;;;;;;;14.80;8.30;;;8.10;99.90;;;;;;8332715;28;20036;-85
2022/10/28 01:07:01;;;;;;;15.80;9.32;;;8.10;99.90;;;;;;8322990;28;20045;-85
2022/10/28 01:11:10;;;;;;;16.33;9.70;;;8.20;99.90;;;;;;8313279;28;20022;-86
2022/10/28 01:15:55;;;;;;;18.90;10.18;;;8.20;99.90;;;;;;8308075;28;20025;-85
2022/10/28 01:20:31;;;;;;;24.63;10.20;;;8.30;99.90;;;;;;8301955;28;20109;-85
2022/10/28 01:24:57;;;;;;;19.20;9.90;;;8.30;99.90;;;;;;8279343;28;20077;-85
2022/10/28 01:29:21;;;;;;;20.00;9.32;;;8.30;99.90;;;;;;8323243;28;20033;-86
2022/10/28 01:34:05;;;;;;;21.58;10.32;;;8.20;99.90;;;;;;8317989;28;20021;-85
2022/10/28 01:38:15;;;;;;;11.88;7.70;;;8.20;99.90;;;;;;8314585;28;20022;-85
2022/10/28 01:42:32;;;;;;;20.15;9.30;;;8.10;99.90;;;;;;8299141;28;20030;-85
2022/10/28 01:46:56;;;;;;;17.08;9.43;;;8.00;99.90;;;;;;8314112;28;20014;-85
2022/10/28 01:51:02;;;;;;;16.42;8.95;;;8.10;99.90;;;;;;8303740;28;20096;-85
2022/10/28 01:55:13;;;;;;;18.63;9.07;;;8.10;99.90;;;;;;8308575;28;20109;-85
2022/10/28 01:59:16;;;;;;;;;;;8.00;99.90;;;;;;8314251;28;20021;-85
2022/10/28 02:03:17;;;;;;;19.42;8.52;;;7.90;99.90;;;;;;8337953;28;19928;-85
2022/10/28 02:07:17;;;;;;;16.05;8.40;;;7.90;99.90;;;;;;8306334;28;20426;-85
2022/10/28 02:11:25;;;;;;;17.10;8.50;;;7.80;99.90;;;;;;8303861;28;20029;-85
2022/10/28 02:15:54;;;;;;;14.48;7.80;;;7.70;99.90;;;;;;8297857;28;20026;-85
2022/10/28 02:20:31;;;;;;;12.77;7.65;;;7.60;99.90;;;;;;8312208;28;20436;-86
2022/10/28 02:24:46;;;;;;;17.95;7.97;;;7.60;99.90;;;;;;8313422;28;20059;-85
2022/10/28 02:28:55;;;;;;;15.35;8.65;;;7.50;99.90;;;;;;8303422;28;20022;-85
2022/10/28 02:32:59;;;;;;;18.60;9.00;;;7.50;99.90;;;;;;8300325;28;20124;-86
2022/10/28 02:37:04;;;;;;;16.83;10.10;;;7.50;99.90;;;;;;8316718;28;20029;-85
2022/10/28 02:41:23;;;;;;;20.50;10.85;;;7.50;99.90;;;;;;8316699;28;21203;-85
2022/10/28 02:45:28;;;;;;;19.92;11.65;;;7.40;99.90;;;;;;8311131;28;20018;-85
2022/10/28 02:49:30;;;;;;;14.90;10.02;;;7.40;99.90;;;;;;8313929;28;20022;-85
2022/10/28 02:53:41;;;;;;;22.10;9.93;;;7.40;99.90;;;;;;8301580;28;20477;-85
2022/10/28 02:57:47;;;;;;;19.33;9.90;;;7.30;99.90;;;;;;8294752;28;20026;-85
2022/10/28 03:01:47;;;;;;;18.23;9.63;;;7.20;99.90;;;;;;8307001;28;20501;-84
2022/10/28 03:05:48;;;;;;;21.27;10.25;;;7.20;99.90;;;;;;8314133;28;20113;-85
2022/10/28 03:09:48;;;;;;;22.40;10.25;;;7.20;99.90;;;;;;8312632;28;20025;-85
2022/10/28 03:13:49;;;;;;;21.10;10.77;;;7.20;99.90;;;;;;8298680;28;20032;-85
2022/10/28 03:17:50;;;;;;;20.25;11.50;;;7.20;99.90;;;;;;8297851;28;20025;-85
2022/10/28 03:21:50;;;;;;;27.40;11.25;;;7.30;99.90;;;;;;8323823;28;20095;-85
2022/10/28 03:25:51;;;;;;;21.20;10.65;;;7.20;99.90;;;;;;8308130;28;20429;-85
2022/10/28 03:29:51;;;;;;;22.70;10.13;;;7.30;99.90;;;;;;8302936;28;20022;-85
2022/10/28 03:33:52;;;;;;;19.98;10.35;;;7.20;99.90;;;;;;8291732;28;20083;-85
2022/10/28 03:37:52;;;;;;;20.60;9.98;;;7.10;99.90;;;;;;8296287;28;20358;-85
2022/10/28 03:41:53;;;;;;;19.42;9.40;;;7.10;99.90;;;;;;8284357;28;20037;-85
2022/10/28 03:45:53;;;;;;;24.10;9.98;;;7.40;99.90;;;;;;8298801;28;20120;-85
2022/10/28 03:49:54;;;;;;;17.20;9.77;;;7.50;99.90;;;;;;8305838;28;20018;-85
2022/10/28 03:53:54;;;;;;;22.08;10.00;;;7.50;99.90;;;;;;8306485;28;20029;-86
2022/10/28 03:57:55;;;;;;;12.38;8.20;;;7.50;99.90;;;;;;8313650;28;20025;-85
2022/10/28 04:01:55;;;;;;;19.38;8.90;;;7.30;99.90;;;;;;8306597;28;20079;-85
2022/10/28 04:05:56;;;;;;;20.60;9.27;;;7.30;99.90;;;;;;8303249;28;20029;-85
2022/10/28 04:09:56;;;;;;;18.88;9.10;;;7.20;99.90;;;;;;8305853;28;20025;-85
2022/10/28 04:13:57;;;;;;;15.05;8.50;;;7.20;99.90;;;;;;8311587;28;20041;-85
2022/10/28 04:17:57;;;;;;;18.70;8.10;;;7.10;99.90;;;;;;8309569;28;20090;-85
2022/10/28 04:21:58;;;;;;;17.63;8.15;;;7.10;99.90;;;;;;8306723;28;20030;-85
2022/10/28 04:25:58;;;;;;;14.98;8.50;;;7.00;99.90;;;;;;8300480;28;20030;-84
2022/10/28 04:29:59;;;;;;;14.52;7.40;;;7.00;99.90;;;;;;8302422;28;20608;-85
2022/10/28 04:34:00;;;;;;;18.35;7.80;;;6.90;99.90;;;;;;8309537;28;20037;-85
2022/10/28 04:38:00;;;;;;;13.45;7.22;;;6.90;99.90;;;;;;8294060;28;20121;-87
2022/10/28 04:42:01;;;;;;;17.92;8.02;;;7.00;99.90;;;;;;8302348;28;20065;-88
2022/10/28 04:46:04;;;;;;;18.02;8.25;;;7.00;99.90;;;;;;8292609;28;20022;-88
2022/10/28 04:50:05;;;;;;;12.93;7.90;;;6.90;99.90;;;;;;8310765;28;20025;-87
2022/10/28 04:54:06;;;;;;;18.63;8.48;;;6.80;99.90;;;;;;8316428;28;20030;-88
2022/10/28 04:58:08;;;;;;;17.50;9.00;;;6.70;99.90;;;;;;8307211;28;20029;-88
2022/10/28 05:02:11;;;;;;;21.77;9.77;;;6.70;99.90;;;;;;8318775;28;20030;-88
2022/10/28 05:06:11;;;;;;;16.20;9.20;;;6.70;99.90;;;;;;8300976;28;20019;-87
2022/10/28 05:10:16;;;;;;;18.55;8.93;;;6.90;99.90;;;;;;8314246;28;20512;-87
2022/10/28 05:14:25;;;;;;;19.15;7.95;;;7.00;99.90;;;;;;8308768;28;20398;-88
2022/10/28 05:18:28;;;;;;;15.77;7.47;;;7.00;99.90;;;;;;8312535;28;20057;-88
2022/10/28 05:22:48;;;;;;;15.70;6.40;;;6.90;99.90;;;;;;8312335;28;20177;-88
2022/10/28 05:26:49;;;;;;;17.50;6.68;;;6.80;99.90;;;;;;8307416;28;20030;-88
2022/10/28 05:31:00;;;;;;;15.70;7.07;;;6.80;99.90;;;;;;8312862;28;20021;-88
2022/10/28 05:35:37;;;;;;;17.27;7.10;;;6.70;99.90;;;;;;8312738;28;20033;-88
2022/10/28 05:39:38;;;;;;;17.10;7.13;;;6.80;99.90;;;;;;8298947;28;20516;-88
2022/10/28 05:43:41;;;;;;;11.43;6.57;;;6.70;99.90;;;;;;8305153;28;20061;-88
2022/10/28 05:47:46;;;;;;;13.93;6.78;;;6.70;99.90;;;;;;8320710;28;20021;-87
2022/10/28 05:51:49;;;;;;;14.60;7.30;;;6.50;99.90;;;;;;8304228;28;20029;-87
2022/10/28 05:55:52;;;;;;;12.05;7.10;;;6.70;99.90;;;;;;8316771;28;20006;-86
2022/10/28 06:00:00;;;;;;;16.50;8.07;;;6.80;99.90;;;;;;8339047;28;20056;-88
2022/10/28 06:04:03;;;;;;;17.27;7.20;;;6.90;99.90;;;;;;8305460;28;20069;-88
2022/10/28 06:08:05;;;;;;;11.30;6.70;;;6.90;99.90;;;;;;8301037;28;20058;-88
2022/10/28 06:12:07;;;;;;;12.18;5.97;;;6.90;99.90;;;;;;8303725;28;20042;-88
2022/10/28 06:16:07;;;;;;;13.52;6.00;;;7.10;99.90;;;;;;8313821;28;20398;-88
2022/10/28 06:20:09;;;;;;;12.95;5.72;;;7.10;99.90;;;;;;8310473;28;20067;-88
2022/10/28 06:24:10;;;;;;;9.75;5.97;;;7.00;99.90;;;;;;8299204;28;20026;-87
2022/10/28 06:28:11;;;;;;;10.27;5.70;;;7.00;99.90;;;;;;8301928;28;20486;-87
2022/10/28 06:32:11;;;;;;;11.43;6.60;;;7.20;99.90;;;;;;8318970;28;20037;-88
2022/10/28 06:36:12;;;;;;;11.02;6.53;;;7.30;99.90;;;;;;8304369;28;20033;-88
2022/10/28 06:40:12;;;;;;;10.48;6.38;;;7.50;99.90;;;;;;8289019;28;20599;-87
2022/10/28 06:44:13;;;;;;;11.90;6.57;;;7.60;99.90;;;;;;8297784;28;20437;-87
2022/10/28 06:48:13;;;;;;;13.20;7.88;;;8.00;99.90;;;;;;8309109;28;20402;-87
2022/10/28 06:52:14;;;;;;;12.10;7.38;;;8.20;99.90;;;;;;8307024;28;20117;-87
2022/10/28 06:56:14;;;;;;;13.07;7.32;;;8.50;99.90;;;;;;8303964;28;20024;-87
2022/10/28 07:00:16;;;;;;;10.85;7.22;;;8.60;99.90;;;;;;8302080;28;20033;-88
2022/10/28 07:04:16;;;;;;;14.13;7.93;;;8.90;99.90;;;;;;8296091;28;20512;-88
2022/10/28 07:08:17;;;;;;;13.80;6.65;;;9.10;99.90;;;;;;8298197;28;20064;-88
2022/10/28 07:12:17;;;;;;;10.20;6.18;;;9.20;99.90;;;;;;8288096;28;20073;-88
2022/10/28 07:16:18;;;;;;;10.02;6.35;;;9.30;99.90;;;;;;8293781;28;20477;-88
2022/10/28 07:20:18;;;;;;;7.70;5.07;;;9.40;99.90;;;;;;8291795;28;20034;-88
2022/10/28 07:24:19;;;;;;;9.45;4.55;;;9.70;99.90;;;;;;8296608;28;20027;-88
2022/10/28 07:28:21;;;;;;;6.18;3.65;;;9.70;99.90;;;;;;8297065;28;20025;-88
2022/10/28 07:32:22;;;;;;;6.03;3.25;;;9.50;99.90;;;;;;8288908;28;20034;-88
2022/10/28 07:36:22;;;;;;;6.28;3.67;;;10.00;99.90;;;;;;8305834;28;20788;-88
2022/10/28 07:40:24;;;;;;;8.18;3.47;;;9.90;99.90;;;;;;8301876;28;20026;-88
2022/10/28 07:44:25;;;;;;;5.20;3.05;;;9.90;99.90;;;;;;8311303;28;20049;-88
2022/10/28 07:48:25;;;;;;;7.95;3.10;;;9.90;99.90;;;;;;8296055;28;20021;-88
2022/10/28 07:52:26;;;;;;;8.80;3.67;;;10.00;99.90;;;;;;8307433;28;20045;-88
2022/10/28 07:56:26;;;;;;;5.95;3.10;;;10.10;99.90;;;;;;8302965;28;20026;-88
2022/10/28 08:00:27;;;;;;;7.88;3.20;;;10.60;99.90;;;;;;8308129;28;20076;-89
2022/10/28 08:04:32;;;;;;;16.50;5.90;;;10.50;99.90;;;;;;8296298;28;20037;-88
2022/10/28 08:08:32;;;;;;;12.27;6.28;;;10.70;99.90;;;;;;8286870;28;20045;-88
2022/10/28 08:12:33;;;;;;;11.93;6.05;;;10.90;99.90;;;;;;8298746;28;20030;-88
2022/10/28 08:16:33;;;;;;;14.15;5.82;;;11.20;99.90;;;;;;8295092;28;20029;-88
2022/10/28 08:20:34;;;;;;;10.32;4.80;;;11.50;99.90;;;;;;8297662;28;20021;-87
2022/10/28 08:24:35;;;;;;;11.35;5.07;;;11.80;99.90;;;;;;8324817;28;20096;-88
2022/10/28 08:28:36;;;;;;;9.13;4.78;;;12.00;99.90;;;;;;8299074;28;20444;-88
2022/10/28 08:32:36;;;;;;;10.88;4.97;;;12.20;99.90;;;;;;8289899;28;20104;-88
2022/10/28 08:36:37;;;;;;;7.10;3.80;;;12.40;99.90;;;;;;8314190;28;20026;-89
2022/10/28 08:41:04;;;;;;;9.45;3.80;;;12.70;99.90;;;;;;8307732;28;20017;-88
2022/10/28 08:45:41;;;;;;;12.77;3.70;;;12.90;99.90;;;;;;8315489;28;20037;-87
2022/10/28 08:49:44;;;;;;;6.50;3.25;;;13.40;99.90;;;;;;8316318;28;20482;-88
2022/10/28 08:53:55;;;;;;;9.25;3.60;;;13.80;99.90;;;;;;8303714;28;20025;-89
2022/10/28 08:58:17;;;;;;;6.15;3.10;;;13.70;99.90;;;;;;8296714;28;20104;-89
2022/10/28 09:02:21;;;;;;;4.55;3.33;;;13.80;99.90;;;;;;8306812;28;20026;-89
2022/10/28 09:06:21;;;;;;;6.47;2.67;;;14.50;99.90;;;;;;8315980;28;20018;-89
2022/10/28 09:11:18;;;;;;;5.43;3.30;;;14.80;99.90;;;;;;8304524;28;20482;-90
2022/10/28 09:15:22;;;;;;;5.80;3.10;;;14.90;99.90;;;;;;8241851;28;20026;-90
2022/10/28 09:19:40;;;;;;;6.47;3.20;;;15.40;99.90;;;;;;8312933;28;20125;-90
2022/10/28 09:23:56;;;;;;;5.80;2.65;;;15.60;99.90;;;;;;8311842;28;20029;-90
2022/10/28 09:28:21;;;;;;;4.68;2.45;;;16.00;99.90;;;;;;8303910;28;20010;-91
2022/10/28 09:32:28;;;;;;;9.15;4.18;;;16.50;99.90;;;;;;8323152;28;20470;-90
2022/10/28 09:36:38;;;;;;;11.63;4.35;;;17.10;99.90;;;;;;8310433;28;20038;-90
2022/10/28 09:40:42;;;;;;;15.55;8.00;;;17.00;99.90;;;;;;8298605;28;20421;-90
2022/10/28 09:44:55;;;;;;;16.60;6.78;;;17.30;99.90;;;;;;8307210;28;20026;-90
2022/10/28 09:49:01;;;;;;;12.82;7.20;;;17.50;99.90;;;;;;8305506;28;20034;-90
2022/10/28 09:53:23;;;;;;;11.52;4.20;;;17.80;99.90;;;;;;8307724;28;20037;-90
2022/10/28 09:57:29;;;;;;;6.90;3.10;;;18.10;99.90;;;;;;8300541;28;20025;-90
2022/10/28 10:01:32;;;;;;;3.90;2.90;;;18.90;99.90;;;;;;8306296;28;20121;-90
2022/10/28 10:05:39;;;;;;;12.90;2.95;;;18.80;99.90;;;;;;8319081;28;20117;-90
2022/10/28 10:09:43;;;;;;;6.72;2.67;;;18.90;99.90;;;;;;8309593;28;20040;-90
2022/10/28 10:13:44;;;;;;;5.40;2.90;;;19.00;99.90;;;;;;8311276;28;20120;-90
2022/10/28 10:17:46;;;;;;;8.55;3.17;;;19.20;99.90;;;;;;8306293;28;20026;-90
2022/10/28 10:21:49;;;;;;;6.57;3.28;;;19.40;99.90;;;;;;8318813;28;20486;-90
2022/10/28 10:25:56;;;;;;;7.68;4.07;;;19.80;99.90;;;;;;8292430;28;20018;-90
2022/10/28 10:29:57;;;;;;;8.88;4.18;;;20.10;99.90;;;;;;8296582;28;20045;-90
2022/10/28 10:33:58;;;;;;;12.65;5.63;;;20.40;99.90;;;;;;8302033;28;20033;-90
2022/10/28 10:38:01;;;;;;;10.85;4.82;;;20.70;99.90;;;;;;8321471;28;20618;-90
2022/10/28 10:42:02;;;;;;;5.13;3.30;;;20.70;99.90;;;;;;8299389;28;20129;-90
2022/10/28 10:46:04;;;;;;;7.43;2.92;;;21.00;99.90;;;;;;8300608;28;20022;-90
2022/10/28 10:50:46;;;;;;;7.25;2.67;;;21.10;99.90;;;;;;8311677;28;20645;-90
2022/10/28 10:55:06;;;;;;;4.70;2.35;;;21.20;99.90;;;;;;8224306;28;20447;-90
2022/10/28 10:59:24;;;;;;;6.57;2.28;;;21.30;99.90;;;;;;8268506;28;20485;-90
2022/10/28 11:03:35;;;;;;;4.25;2.20;;;21.20;99.90;;;;;;8313975;28;20029;-90
2022/10/28 11:07:39;;;;;;;8.30;1.40;;;21.50;99.90;;;;;;8307807;28;20063;-90
2022/10/28 11:11:40;;;;;;;4.65;1.90;;;22.60;99.90;;;;;;8312220;28;20080;-89
2022/10/28 11:15:40;;;;;;;4.72;1.98;;;23.80;99.90;;;;;;8313973;28;20045;-89
2022/10/28 11:19:41;;;;;;;4.50;1.50;;;24.70;99.90;;;;;;8312145;28;20051;-89
2022/10/28 11:23:53;;;;;;;6.55;1.95;;;25.20;99.90;;;;;;8312439;28;20026;-89
2022/10/28 11:28:24;;;;;;;6.75;2.20;;;25.70;99.90;;;;;;8311857;28;20027;-89
2022/10/28 11:32:55;;;;;;;6.70;1.90;;;26.70;99.90;;;;;;8303240;28;20079;-90
2022/10/28 11:37:13;;;;;;;;;;;27.60;99.90;;;;;;8310865;28;20269;-89
2022/10/28 11:41:39;;;;;;;3.85;1.70;;;28.00;98.80;;;;;;8311334;28;19963;-88
2022/10/28 11:45:39;;;;;;;7.28;1.98;;;28.50;93.60;;;;;;8291663;28;20029;-90
2022/10/28 11:49:58;;;;;;;3.90;1.95;;;28.40;95.80;;;;;;8318770;28;20048;-89
2022/10/28 11:54:20;;;;;;;5.93;2.00;;;28.10;91.00;;;;;;8303273;28;20049;-90
2022/10/28 11:58:45;;;;;;;8.93;1.83;;;26.90;94.40;;;;;;8307717;28;20548;-90
2022/10/28 12:03:12;;;;;;;4.97;1.80;;;27.90;92.90;;;;;;8301976;28;20029;-90
2022/10/28 12:07:27;;;;;;;7.03;1.95;;;28.80;90.40;;;;;;8314225;28;20025;-88
2022/10/28 12:11:39;;;;;;;4.82;1.90;;;28.80;88.40;;;;;;8309689;28;20491;-88
2022/10/28 12:16:08;;;;;;;6.80;2.10;;;28.70;90.20;;;;;;8314127;28;20028;-89
2022/10/28 12:20:43;;;;;;;7.70;1.73;;;27.40;90.60;;;;;;8301627;28;20489;-90
2022/10/28 12:24:45;;;;;;;4.60;1.65;;;25.00;93.70;;;;;;8309739;28;20025;-89
2022/10/28 12:28:53;;;;;;;4.55;1.83;;;23.60;94.80;;;;;;8307135;28;20014;-90
2022/10/28 12:33:00;;;;;;;7.57;1.70;;;22.70;97.50;;;;;;8295799;28;20075;-90
2022/10/28 12:37:22;;;;;;;5.65;1.75;;;22.20;99.90;;;;;;8311724;28;20810;-90
2022/10/28 12:41:26;;;;;;;7.15;1.95;;;21.90;99.90;;;;;;8251008;28;20033;-88
2022/10/28 12:45:30;;;;;;;3.85;1.50;;;21.60;99.90;;;;;;8290871;28;20041;-89
2022/10/28 12:49:33;;;;;;;4.88;1.90;;;21.30;99.90;;;;;;8297483;28;20614;-89
2022/10/28 12:54:17;;;;;;;8.35;1.80;;;21.40;99.90;;;;;;8316291;28;20021;-89
2022/10/28 12:58:26;;;;;;;6.40;1.90;;;21.50;99.90;;;;;;8296975;28;20026;-89
2022/10/28 13:02:46;;;;;;;5.10;1.93;;;21.40;99.90;;;;;;8315057;28;20435;-89
2022/10/28 13:07:05;;;;;;;5.93;2.10;;;21.40;99.90;;;;;;8310935;28;20080;-89
2022/10/28 13:11:14;;;;;;;6.60;2.33;;;21.30;99.90;;;;;;8310269;28;20061;-90
2022/10/28 13:15:44;;;;;;;11.55;2.40;;;21.20;99.90;;;;;;8307642;28;20025;-90
2022/10/28 13:20:17;;;;;;;5.80;2.10;;;21.20;99.90;;;;;;8316595;28;20026;-89
2022/10/28 13:24:33;;;;;;;5.28;1.88;;;21.20;99.90;;;;;;8299650;28;20029;-89
2022/10/28 13:28:40;;;;;;;8.85;2.15;;;21.10;99.90;;;;;;8309012;28;20539;-90
2022/10/28 13:32:42;;;;;;;4.40;1.80;;;21.10;99.90;;;;;;8312275;28;20551;-89
2022/10/28 13:37:18;;;;;;;9.25;2.13;;;21.10;99.90;;;;;;8322000;28;20028;-90
2022/10/28 13:41:30;;;;;;;6.40;2.10;;;21.20;99.90;;;;;;8272235;28;20041;-89
2022/10/28 13:45:52;;;;;;;6.45;1.63;;;21.10;99.90;;;;;;8293096;28;20030;-90
2022/10/28 13:50:14;;;;;;;4.95;1.85;;;20.90;99.90;;;;;;8301950;28;20021;-90
2022/10/28 13:54:27;;;;;;;10.25;2.47;;;20.80;99.90;;;;;;8313258;28;20146;-90
2022/10/28 13:58:27;;;;;;;8.68;2.42;;;20.60;99.90;;;;;;8305899;28;20750;-90
2022/10/28 14:02:40;;;;;;;10.05;2.45;;;20.40;99.90;;;;;;8304769;28;20033;-90
2022/10/28 14:06:40;;;;;;;7.78;2.70;;;20.20;99.90;;;;;;8313859;28;20021;-90
2022/10/28 14:11:06;;;;;;;8.25;2.90;;;20.20;99.90;;;;;;8320203;28;20032;-90
2022/10/28 14:15:23;;;;;;;9.68;3.33;;;20.40;99.90;;;;;;8309221;28;20025;-90
2022/10/28 14:19:24;;;;;;;7.80;3.85;;;20.60;99.90;;;;;;8311969;28;20452;-90
2022/10/28 14:23:27;;;;;;;10.43;3.08;;;20.80;99.90;;;;;;8318832;28;20021;-90
2022/10/28 14:27:46;;;;;;;6.28;2.30;;;20.80;99.90;;;;;;8312401;28;20057;-90
2022/10/28 14:31:47;;;;;;;5.03;2.30;;;20.90;99.90;;;;;;8313114;28;20026;-90
2022/10/28 14:35:51;;;;;;;12.27;2.45;;;20.80;99.90;;;;;;8305005;28;20478;-90
2022/10/28 14:40:18;;;;;;;7.00;2.20;;;20.70;99.90;;;;;;8313027;28;20477;-91
2022/10/28 14:44:31;;;;;;;6.93;2.30;;;20.50;99.90;;;;;;8301811;28;20514;-90
2022/10/28 14:48:39;;;;;;;6.85;2.30;;;20.20;99.90;;;;;;8303445;28;20017;-90
2022/10/28 14:52:42;;;;;;;5.30;2.20;;;20.00;99.90;;;;;;8317031;28;20064;-90
2022/10/28 14:56:43;;;;;;;9.10;3.03;;;19.60;99.90;;;;;;8306323;28;20175;-90
2022/10/28 15:00:54;;;;;;;5.68;2.17;;;19.40;99.90;;;;;;8312414;28;20045;-90
2022/10/28 15:05:13;;;;;;;8.88;2.42;;;19.60;99.90;;;;;;8301160;28;20026;-90
2022/10/28 15:09:30;;;;;;;7.20;2.17;;;19.30;99.90;;;;;;8304379;28;20029;-90
2022/10/28 15:13:30;;;;;;;5.93;2.20;;;19.00;99.90;;;;;;8307851;28;20045;-90
2022/10/28 15:17:38;;;;;;;8.88;2.55;;;18.50;99.90;;;;;;8317884;28;20141;-90
2022/10/28 15:21:38;;;;;;;10.07;2.42;;;18.20;99.90;;;;;;8310788;28;20440;-90
2022/10/28 15:25:39;;;;;;;11.07;2.78;;;18.00;99.90;;;;;;8304341;28;20018;-89
2022/10/28 15:29:41;;;;;;;6.68;2.35;;;18.00;99.90;;;;;;8297534;28;20028;-90
2022/10/28 15:33:42;;;;;;;5.60;2.40;;;17.80;99.90;;;;;;8315405;28;20437;-90
2022/10/28 15:37:44;;;;;;;6.65;2.90;;;17.70;99.90;;;;;;8302806;28;20029;-90
2022/10/28 15:41:51;;;;;;;9.23;3.15;;;17.60;99.90;;;;;;8306735;28;20021;-90
2022/10/28 15:45:51;;;;;;;7.35;2.05;;;17.40;99.90;;;;;;8305956;28;20026;-90
2022/10/28 15:50:15;;;;;;;5.78;2.45;;;17.40;99.90;;;;;;8316513;28;20545;-89
2022/10/28 15:54:19;;;;;;;7.35;2.65;;;17.10;99.90;;;;;;8298872;28;20050;-90
2022/10/28 15:58:37;;;;;;;7.30;2.53;;;16.70;99.90;;;;;;8302127;28;20025;-90
2022/10/28 16:02:41;;;;;;;9.52;2.85;;;16.80;99.90;;;;;;8301105;28;20049;-90
2022/10/28 16:06:42;;;;;;;7.38;2.80;;;16.60;99.90;;;;;;8314768;28;20040;-90
2022/10/28 16:10:58;;;;;;;6.53;3.17;;;16.10;99.90;;;;;;8310327;28;20018;-90
2022/10/28 16:15:01;;;;;;;6.63;2.60;;;16.00;99.90;;;;;;8301077;28;20043;-90
2022/10/28 16:19:07;;;;;;;8.32;3.25;;;15.70;99.90;;;;;;8315297;28;20029;-90
2022/10/28 16:23:14;;;;;;;5.68;3.10;;;15.40;99.90;;;;;;8304487;28;20117;-90
2022/10/28 16:27:17;;;;;;;10.57;3.30;;;15.10;99.90;;;;;;8310105;28;20018;-90
2022/10/28 16:31:21;;;;;;;9.05;3.10;;;14.70;99.90;;;;;;8312485;28;20056;-90
2022/10/28 16:35:23;;;;;;;12.23;3.92;;;14.60;99.90;;;;;;8308752;28;20025;-90
2022/10/28 16:39:23;;;;;;;9.13;3.38;;;14.40;99.90;;;;;;8314019;28;20559;-90
2022/10/28 16:43:26;;;;;;;9.27;3.63;;;14.40;99.90;;;;;;8311671;28;20041;-90
2022/10/28 16:47:27;;;;;;;5.72;3.33;;;14.50;99.90;;;;;;8318523;28;20386;-91
2022/10/28 16:51:28;;;;;;;8.65;3.63;;;14.50;99.90;;;;;;8309411;28;20018;-91
2022/10/28 16:55:29;;;;;;;10.43;5.00;;;14.40;99.90;;;;;;8304213;28;20029;-90
2022/10/28 16:59:29;;;;;;;19.25;9.93;;;14.20;99.90;;;;;;8318086;28;20041;-90
2022/10/28 17:03:30;;;;;;;15.82;9.68;;;14.20;99.90;;;;;;8319111;28;20030;-91
2022/10/28 17:07:30;;;;;;;13.30;6.90;;;14.10;99.90;;;;;;8312977;28;20021;-91
2022/10/28 17:11:31;;;;;;;11.82;5.00;;;14.50;99.90;;;;;;8316732;28;20018;-90
2022/10/28 17:15:31;;;;;;;10.32;4.72;;;14.60;99.90;;;;;;8307556;28;20021;-90
2022/10/28 17:19:32;;;;;;;15.07;6.43;;;14.60;99.90;;;;;;8315552;28;20025;-90
2022/10/28 17:23:33;;;;;;;12.13;5.60;;;14.60;99.90;;;;;;8314788;28;20030;-90
2022/10/28 17:27:33;;;;;;;13.65;6.65;;;14.80;99.90;;;;;;8310531;28;20084;-91
2022/10/28 17:31:34;;;;;;;12.35;6.47;;;14.70;99.90;;;;;;8297635;28;20026;-91
2022/10/28 17:35:34;;;;;;;13.60;6.53;;;14.50;99.90;;;;;;8308951;28;20017;-90
2022/10/28 17:39:35;;;;;;;17.95;9.10;;;14.20;99.90;;;;;;8318078;28;20036;-90
2022/10/28 17:43:36;;;;;;;33.20;16.75;;;14.10;99.90;;;;;;8308218;28;20048;-90
2022/10/28 17:47:36;;;;;;;29.00;15.68;;;13.80;99.90;;;;;;8325694;28;20060;-90
2022/10/28 17:51:37;;;;;;;24.67;14.55;;;14.00;99.90;;;;;;8323755;28;20443;-90
2022/10/28 17:55:38;;;;;;;19.60;11.45;;;13.80;99.90;;;;;;8313882;28;20071;-90
2022/10/28 17:59:38;;;;;;;14.57;9.07;;;13.70;99.90;;;;;;8327056;28;20116;-91
2022/10/28 18:03:39;;;;;;;18.65;8.68;;;13.80;99.90;;;;;;8301219;28;20065;-85
2022/10/28 18:07:39;;;;;;;18.80;12.10;;;13.70;99.90;;;;;;8299592;28;20117;-86
2022/10/28 18:11:40;;;;;;;19.88;9.40;;;13.70;99.90;;;;;;8314030;28;20033;-86
2022/10/28 18:15:40;;;;;;;24.17;11.95;;;14.00;99.90;;;;;;8299934;28;20501;-86
2022/10/28 18:19:41;;;;;;;15.98;9.82;;;13.80;99.90;;;;;;8303527;28;20018;-86
2022/10/28 18:23:42;;;;;;;16.35;8.23;;;13.70;99.90;;;;;;8300428;28;20391;-86
2022/10/28 18:27:42;;;;;;;16.25;7.68;;;13.60;99.90;;;;;;8313027;28;20104;-86
2022/10/28 18:31:43;;;;;;;18.60;7.95;;;13.40;99.90;;;;;;8303930;28;20034;-86
2022/10/28 18:35:44;;;;;;;15.50;8.57;;;13.10;99.90;;;;;;8317241;28;20557;-86
2022/10/28 18:39:44;;;;;;;17.25;8.75;;;12.90;99.90;;;;;;8303119;28;20041;-86
2022/10/28 18:43:45;;;;;;;13.57;8.13;;;12.90;99.90;;;;;;8303389;28;20021;-85
2022/10/28 18:47:46;;;;;;;15.68;7.97;;;12.80;99.90;;;;;;8295396;28;20041;-85
2022/10/28 18:51:46;;;;;;;18.00;9.68;;;13.00;99.90;;;;;;8310619;28;20030;-85
2022/10/28 18:55:47;;;;;;;23.35;12.25;;;12.80;99.90;;;;;;8305461;28;20029;-85
2022/10/28 18:59:49;;;;;;;16.55;10.25;;;12.80;99.90;;;;;;8306236;28;20022;-85
2022/10/28 19:03:52;;;;;;;17.25;9.45;;;13.00;99.90;;;;;;8302868;28;20017;-86
2022/10/28 19:07:52;;;;;;;15.55;8.38;;;12.90;99.90;;;;;;8317994;28;20073;-85
2022/10/28 19:11:53;;;;;;;12.43;7.10;;;12.80;99.90;;;;;;8298102;28;20434;-86
2022/10/28 19:15:53;;;;;;;14.52;8.63;;;12.80;99.90;;;;;;8315031;28;20025;-85
2022/10/28 19:19:54;;;;;;;12.73;6.20;;;12.90;99.90;;;;;;8304831;28;20807;-86
2022/10/28 19:23:55;;;;;;;11.95;6.18;;;12.70;99.90;;;;;;8305729;28;20026;-86
2022/10/28 19:27:57;;;;;;;15.63;6.10;;;12.50;99.90;;;;;;8310780;28;20026;-86
2022/10/28 19:31:58;;;;;;;13.98;5.88;;;12.10;99.90;;;;;;8303767;28;20034;-86
2022/10/28 19:36:08;;;;;;;9.98;6.03;;;12.00;99.90;;;;;;8307535;28;20048;-86
2022/10/28 19:40:09;;;;;;;;;;;11.90;99.90;;;;;;8306538;28;20087;-86
2022/10/28 19:44:09;;;;;;;13.27;6.25;;;11.70;99.90;;;;;;8314679;28;19909;-86
2022/10/28 19:48:10;;;;;;;10.07;5.60;;;11.50;99.90;;;;;;8303104;28;20080;-86
2022/10/28 19:52:10;;;;;;;12.02;5.72;;;11.40;99.90;;;;;;8296798;28;20764;-86
2022/10/28 19:56:11;;;;;;;15.25;8.10;;;11.40;99.90;;;;;;8293513;28;20029;-85
2022/10/28 20:00:12;;;;;;;18.15;7.57;;;11.30;99.90;;;;;;8311065;28;20037;-85
2022/10/28 20:04:12;;;;;;;18.23;10.13;;;11.30;99.90;;;;;;8306159;28;20485;-86
2022/10/28 20:08:16;;;;;;;21.00;9.30;;;11.30;99.90;;;;;;8302997;28;20014;-86
2022/10/28 20:12:16;;;;;;;15.95;8.63;;;11.30;99.90;;;;;;8306396;28;20097;-86
2022/10/28 20:16:17;;;;;;;20.27;8.98;;;11.10;99.90;;;;;;8317893;28;20512;-85
2022/10/28 20:20:17;;;;;;;14.18;9.32;;;10.90;99.90;;;;;;8313479;28;20045;-86
2022/10/28 20:24:19;;;;;;;16.77;8.95;;;10.90;99.90;;;;;;8317114;28;20022;-86
2022/10/28 20:28:19;;;;;;;16.92;9.10;;;10.80;99.90;;;;;;8316338;28;20026;-86
2022/10/28 20:32:22;;;;;;;18.40;10.27;;;10.70;99.90;;;;;;8316409;28;20401;-86
2022/10/28 20:36:29;;;;;;;19.35;11.45;;;10.70;99.90;;;;;;8320067;28;20036;-86
2022/10/28 20:40:29;;;;;;;32.70;14.60;;;10.70;99.90;;;;;;8314706;28;20029;-86
2022/10/28 20:44:30;;;;;;;26.35;12.13;;;10.70;99.90;;;;;;8326221;28;20029;-85
2022/10/28 20:48:30;;;;;;;19.23;8.88;;;10.80;99.90;;;;;;8316629;28;20105;-86
2022/10/28 20:52:31;;;;;;;20.50;8.70;;;10.70;99.90;;;;;;8317306;28;20018;-86
2022/10/28 20:56:35;;;;;;;15.45;7.97;;;10.80;99.90;;;;;;8307971;28;20025;-85
2022/10/28 21:00:35;;;;;;;17.60;7.35;;;10.60;99.90;;;;;;8307234;28;20021;-85
2022/10/28 21:04:36;;;;;;;15.57;7.28;;;10.60;99.90;;;;;;8301481;28;20021;-86
2022/10/28 21:08:36;;;;;;;17.25;7.20;;;10.70;99.90;;;;;;8320858;28;20288;-86
2022/10/28 21:12:37;;;;;;;16.20;6.55;;;10.70;99.90;;;;;;8328210;28;20026;-86
2022/10/28 21:16:38;;;;;;;11.65;5.85;;;10.70;99.90;;;;;;8316994;28;20397;-85